createdAt,value
2022-11-09T00:02:16.182Z,2.63
2022-11-09T00:05:19.421Z,2.83
2022-11-09T00:08:24.019Z,2.57
2022-11-09T00:11:27.348Z,2.67
2022-11-09T00:14:30.648Z,3.23
2022-11-09T00:17:33.837Z,2.70
2022-11-09T00:20:37.072Z,2.77
2022-11-09T00:23:41.587Z,2.93
2022-11-09T00:26:44.809Z,2.63
2022-11-09T00:29:48.104Z,3.23
2022-11-09T00:32:51.305Z,3.07
2022-11-09T00:35:54.538Z,2.60
2022-11-09T00:39:00.046Z,2.73
2022-11-09T00:42:03.332Z,3.03
2022-11-09T00:45:06.891Z,3.53
2022-11-09T00:48:10.470Z,2.50
2022-11-09T00:51:13.901Z,2.53
2022-11-09T00:54:18.556Z,2.93
2022-11-09T00:57:21.774Z,2.67
2022-11-09T01:00:25.691Z,3.67
2022-11-09T01:03:28.896Z,2.30
2022-11-09T01:06:33.899Z,2.43
2022-11-09T01:09:38.669Z,2.77
2022-11-09T01:12:41.847Z,2.50
2022-11-09T01:15:45.685Z,2.50
2022-11-09T01:18:49.307Z,2.20
2022-11-09T01:21:52.490Z,2.33
2022-11-09T01:24:57.026Z,2.40
2022-11-09T01:28:00.587Z,2.10
2022-11-09T01:31:04.823Z,2.50
2022-11-09T01:34:08.082Z,4.10
2022-11-09T01:37:11.277Z,2.57
2022-11-09T01:40:16.104Z,2.07
2022-11-09T01:43:20.543Z,2.03
2022-11-09T01:46:27.275Z,2.50
2022-11-09T01:49:37.279Z,3.20
2022-11-09T01:52:42.061Z,2.97
2022-11-09T01:55:47.524Z,2.50
2022-11-09T01:58:52.402Z,2.60
2022-11-09T02:01:55.812Z,2.60
2022-11-09T02:05:03.200Z,2.50
2022-11-09T02:08:07.166Z,3.43
2022-11-09T02:11:12.619Z,2.00
2022-11-09T02:14:16.161Z,2.70
2022-11-09T02:17:19.789Z,3.07
2022-11-09T02:20:25.037Z,2.37
2022-11-09T02:23:28.915Z,2.40
2022-11-09T02:26:33.953Z,2.40
2022-11-09T02:29:38.467Z,2.90
2022-11-09T02:32:41.717Z,2.07
2022-11-09T02:35:46.270Z,5.63
2022-11-09T02:38:49.484Z,3.67
2022-11-09T02:41:53.983Z,2.37
2022-11-09T02:44:58.229Z,2.37
2022-11-09T02:48:01.440Z,2.53
2022-11-09T02:51:06.066Z,2.30
2022-11-09T02:54:09.378Z,2.17
2022-11-09T02:57:12.567Z,2.93
2022-11-09T03:00:15.839Z,2.50
2022-11-09T03:03:19.489Z,2.40
2022-11-09T03:06:34.275Z,2.27
2022-11-09T03:09:37.637Z,2.07
2022-11-09T03:12:40.832Z,1.70
2022-11-09T03:15:44.024Z,2.60
2022-11-09T03:18:47.192Z,2.10
2022-11-09T03:21:51.722Z,1.87
2022-11-09T03:24:55.625Z,1.73
2022-11-09T03:27:59.468Z,1.70
2022-11-09T03:31:02.862Z,3.40
2022-11-09T03:34:06.045Z,1.90
2022-11-09T03:37:10.615Z,2.03
2022-11-09T03:40:14.066Z,1.97
2022-11-09T03:43:17.463Z,3.17
2022-11-09T03:46:20.830Z,2.10
2022-11-09T03:49:24.770Z,2.27
2022-11-09T03:52:29.324Z,1.70
2022-11-09T03:55:32.507Z,1.77
2022-11-09T03:58:35.691Z,1.20
2022-11-09T04:01:38.966Z,2.30
2022-11-09T04:04:42.222Z,2.20
2022-11-09T04:07:50.273Z,2.00
2022-11-09T04:10:53.439Z,1.43
2022-11-09T04:13:56.601Z,1.50
2022-11-09T04:16:59.902Z,1.70
2022-11-09T04:20:03.214Z,1.80
2022-11-09T04:23:08.462Z,1.63
2022-11-09T04:26:11.668Z,1.97
2022-11-09T04:29:14.851Z,2.73
2022-11-09T04:32:18.051Z,2.07
2022-11-09T04:35:21.231Z,1.90
2022-11-09T04:38:25.761Z,1.93
2022-11-09T04:41:29.307Z,1.60
2022-11-09T04:44:32.502Z,2.07
2022-11-09T04:47:35.671Z,1.77
2022-11-09T04:50:38.948Z,1.57
2022-11-09T04:53:43.498Z,1.20
2022-11-09T04:56:46.669Z,4.70
2022-11-09T04:59:49.864Z,1.77
2022-11-09T05:02:53.044Z,1.70
2022-11-09T05:05:56.211Z,0.80
2022-11-09T05:09:01.260Z,1.30
2022-11-09T05:12:04.478Z,0.73
2022-11-09T05:15:08.198Z,1.50
2022-11-09T05:18:11.908Z,2.10
2022-11-09T05:21:15.155Z,3.53
2022-11-09T05:24:18.712Z,2.03
2022-11-09T05:27:21.899Z,2.70
2022-11-09T05:30:25.223Z,1.80
2022-11-09T05:33:28.516Z,1.40
2022-11-09T05:36:33.733Z,1.50
2022-11-09T05:39:38.279Z,5.57
2022-11-09T05:42:41.891Z,2.13
2022-11-09T05:45:45.094Z,1.10
2022-11-09T05:48:48.637Z,1.70
2022-11-09T05:51:51.814Z,1.47
2022-11-09T05:54:56.462Z,2.07
2022-11-09T05:57:59.639Z,3.90
2022-11-09T06:01:02.828Z,3.80
2022-11-09T06:04:06.222Z,2.43
2022-11-09T06:07:09.489Z,2.70
2022-11-09T06:10:14.403Z,3.23
2022-11-09T06:13:17.920Z,4.50
2022-11-09T06:16:21.420Z,3.73
2022-11-09T06:19:24.619Z,9.97
2022-11-09T06:22:27.836Z,3.43
2022-11-09T06:25:32.792Z,2.57
2022-11-09T06:28:36.270Z,2.70
2022-11-09T06:31:39.437Z,2.97
2022-11-09T06:34:43.181Z,2.87
2022-11-09T06:37:46.363Z,6.03
2022-11-09T06:40:54.255Z,4.07
2022-11-09T06:43:57.443Z,4.23
2022-11-09T06:47:00.615Z,4.47
2022-11-09T06:50:04.344Z,3.30
2022-11-09T06:53:08.519Z,6.60
2022-11-09T06:56:13.257Z,6.00
2022-11-09T06:59:16.713Z,11.97
2022-11-09T07:02:19.900Z,9.87
2022-11-09T07:05:23.409Z,11.63
2022-11-09T07:08:26.596Z,8.00
2022-11-09T07:11:31.183Z,14.07
2022-11-09T07:14:34.386Z,10.77
2022-11-09T07:17:39.626Z,7.33
2022-11-09T07:20:42.826Z,9.00
2022-11-09T07:23:46.096Z,10.80
2022-11-09T07:26:50.888Z,8.50
2022-11-09T07:29:54.065Z,5.27
2022-11-09T07:33:14.630Z,8.20
2022-11-09T07:36:21.342Z,5.60
2022-11-09T07:39:25.077Z,4.73
2022-11-09T07:42:29.659Z,3.80
2022-11-09T07:45:33.247Z,2.87
2022-11-09T07:48:36.457Z,2.90
2022-11-09T07:51:39.643Z,4.20
2022-11-09T07:54:42.856Z,3.77
2022-11-09T07:57:47.431Z,4.27
2022-11-09T08:00:50.616Z,1.97
2022-11-09T08:03:54.599Z,2.63
2022-11-09T08:06:57.856Z,2.43
2022-11-09T08:10:01.125Z,2.47
2022-11-09T08:13:06.918Z,3.00
2022-11-09T08:16:10.211Z,3.40
2022-11-09T08:19:13.407Z,2.50
2022-11-09T08:22:16.598Z,4.30
2022-11-09T08:25:19.879Z,6.10
2022-11-09T08:28:24.687Z,2.63
2022-11-09T08:31:27.886Z,2.23
2022-11-09T08:34:31.258Z,4.57
2022-11-09T08:37:36.250Z,4.30
2022-11-09T08:40:39.450Z,3.43
2022-11-09T08:43:44.070Z,2.97
2022-11-09T08:46:47.300Z,3.20
2022-11-09T08:49:50.467Z,2.87
2022-11-09T08:52:56.908Z,2.27
2022-11-09T08:56:00.406Z,4.73
2022-11-09T08:59:05.063Z,2.33
2022-11-09T09:02:08.638Z,2.17
2022-11-09T09:05:11.964Z,1.60
2022-11-09T09:08:16.269Z,1.47
2022-11-09T09:11:19.717Z,2.67
2022-11-09T09:14:24.351Z,5.97
2022-11-09T09:17:27.796Z,1.77
2022-11-09T09:20:31.088Z,1.73
2022-11-09T09:23:34.264Z,1.37
2022-11-09T09:26:37.576Z,3.63
2022-11-09T09:29:42.258Z,1.93
2022-11-09T09:32:45.622Z,1.83
2022-11-09T09:35:48.809Z,1.87
2022-11-09T09:38:53.084Z,1.50
2022-11-09T09:41:57.400Z,1.80
2022-11-09T09:45:04.220Z,3.73
2022-11-09T09:48:19.106Z,3.20
2022-11-09T09:51:24.346Z,1.73
2022-11-09T09:54:28.720Z,1.90
2022-11-09T09:57:33.802Z,1.17
2022-11-09T10:00:41.599Z,1.60
2022-11-09T10:03:44.982Z,1.40
2022-11-09T10:06:59.349Z,1.87
2022-11-09T10:10:11.991Z,2.03
2022-11-09T10:13:30.007Z,1.33
2022-11-09T10:16:40.967Z,1.83
2022-11-09T10:19:53.215Z,1.47
2022-11-09T10:23:01.788Z,1.83
2022-11-09T10:26:11.308Z,1.00
2022-11-09T10:29:21.380Z,1.30
2022-11-09T10:32:26.496Z,1.53
2022-11-09T10:35:31.728Z,0.97
2022-11-09T10:38:41.253Z,2.03
2022-11-09T10:41:46.798Z,1.07
2022-11-09T10:44:50.006Z,1.40
2022-11-09T10:47:54.963Z,1.80
2022-11-09T10:50:58.598Z,3.20
2022-11-09T10:54:18.267Z,1.47
2022-11-09T10:57:22.896Z,0.70
2022-11-09T11:00:26.370Z,2.10
2022-11-09T11:03:31.416Z,1.63
2022-11-09T11:06:34.681Z,1.43
2022-11-09T11:09:38.074Z,1.57
2022-11-09T11:12:41.447Z,3.00
2022-11-09T11:15:44.740Z,1.07
2022-11-09T11:18:49.361Z,0.67
2022-11-09T11:22:10.191Z,6.90
2022-11-09T11:25:20.093Z,0.80
2022-11-09T11:28:25.337Z,1.53
2022-11-09T11:31:28.603Z,1.67
2022-11-09T11:34:58.455Z,1.97
2022-11-09T11:38:04.714Z,4.07
2022-11-09T11:41:14.843Z,2.47
2022-11-09T11:44:23.734Z,1.50
2022-11-09T11:47:28.337Z,2.17
2022-11-09T11:50:41.023Z,0.80
2022-11-09T11:53:53.741Z,1.37
2022-11-09T11:57:00.459Z,1.40
2022-11-09T12:00:12.910Z,1.00
2022-11-09T12:03:35.072Z,1.30
2022-11-09T12:06:56.571Z,1.30
2022-11-09T12:10:06.741Z,1.43
2022-11-09T12:13:16.627Z,1.20
2022-11-09T12:16:24.396Z,3.67
2022-11-09T12:19:37.611Z,2.97
2022-11-09T12:22:47.637Z,2.10
2022-11-09T12:25:54.785Z,1.40
2022-11-09T12:29:06.427Z,1.90
2022-11-09T12:32:14.655Z,1.40
2022-11-09T12:35:21.305Z,1.80
2022-11-09T12:38:28.152Z,1.30
2022-11-09T12:41:33.232Z,2.00
2022-11-09T12:44:39.218Z,4.53
2022-11-09T12:47:44.579Z,2.40
2022-11-09T12:50:48.007Z,1.67
2022-11-09T12:53:52.539Z,2.03
2022-11-09T12:56:57.293Z,5.33
2022-11-09T13:00:01.347Z,1.43
2022-11-09T13:03:06.273Z,1.43
2022-11-09T13:06:14.214Z,1.23
2022-11-09T13:09:35.895Z,1.57
2022-11-09T13:12:47.626Z,1.80
2022-11-09T13:16:05.803Z,1.27
2022-11-09T13:19:10.376Z,1.63
2022-11-09T13:22:28.506Z,1.10
2022-11-09T13:25:47.237Z,0.93
2022-11-09T13:29:11.234Z,0.60
2022-11-09T13:32:33.229Z,0.97
2022-11-09T13:35:55.493Z,1.97
2022-11-09T13:39:17.237Z,2.90
2022-11-09T13:42:28.298Z,3.30
2022-11-09T13:45:35.242Z,2.20
2022-11-09T13:48:40.904Z,2.17
2022-11-09T13:51:46.411Z,2.40
2022-11-09T13:54:55.194Z,2.80
2022-11-09T13:58:02.477Z,2.57
2022-11-09T14:01:05.720Z,0.90
2022-11-09T14:04:20.704Z,1.33
2022-11-09T14:07:25.113Z,1.20
2022-11-09T14:10:35.391Z,1.50
2022-11-09T14:13:53.483Z,1.37
2022-11-09T14:17:00.867Z,1.07
2022-11-09T14:20:11.722Z,1.10
2022-11-09T14:23:17.548Z,2.70
2022-11-09T14:26:22.084Z,3.47
2022-11-09T14:29:26.164Z,1.73
2022-11-09T14:32:33.848Z,1.77
2022-11-09T14:35:38.945Z,1.90
2022-11-09T14:38:46.226Z,1.20
2022-11-09T14:41:49.519Z,1.30
2022-11-09T14:44:52.754Z,2.07
2022-11-09T14:47:58.584Z,4.77
2022-11-09T14:51:02.877Z,1.90
2022-11-09T14:54:08.718Z,2.00
2022-11-09T14:57:13.109Z,2.90
2022-11-09T15:00:28.466Z,2.63
2022-11-09T15:03:33.021Z,3.23
2022-11-09T15:06:36.300Z,3.03
2022-11-09T15:09:44.276Z,3.93
2022-11-09T15:12:49.503Z,3.47
2022-11-09T15:15:53.598Z,5.20
2022-11-09T15:18:58.234Z,4.27
2022-11-09T15:22:01.539Z,10.67
2022-11-09T15:25:19.930Z,8.67
2022-11-09T15:28:24.901Z,5.93
2022-11-09T15:31:28.658Z,10.83
2022-11-09T15:34:36.696Z,7.53
2022-11-09T15:37:49.479Z,4.00
2022-11-09T15:40:52.780Z,5.80
2022-11-09T15:43:56.171Z,3.83
2022-11-09T15:46:59.766Z,6.90
2022-11-09T15:50:08.551Z,7.17
2022-11-09T15:53:12.115Z,5.47
2022-11-09T15:56:17.530Z,9.20
2022-11-09T15:59:21.689Z,7.67
2022-11-09T16:02:24.987Z,5.33
2022-11-09T16:05:29.707Z,4.43
2022-11-09T16:08:32.969Z,6.47
2022-11-09T16:11:36.186Z,4.13
2022-11-09T16:14:39.842Z,6.10
2022-11-09T16:17:43.321Z,4.57
2022-11-09T16:20:48.005Z,5.70
2022-11-09T16:23:54.372Z,7.53
2022-11-09T16:27:02.193Z,7.93
2022-11-09T16:30:05.998Z,6.43
2022-11-09T16:33:09.559Z,6.87
2022-11-09T16:36:16.417Z,8.63
2022-11-09T16:39:22.564Z,8.77
2022-11-09T16:42:26.955Z,7.60
2022-11-09T16:45:33.679Z,9.03
2022-11-09T16:48:37.163Z,9.37
2022-11-09T16:51:41.988Z,9.50
2022-11-09T16:54:45.455Z,9.90
2022-11-09T16:57:48.736Z,9.37
2022-11-09T17:04:15.749Z,8.97
2022-11-09T17:07:20.617Z,13.90
2022-11-09T17:10:23.951Z,15.57
2022-11-09T17:13:27.181Z,16.20
2022-11-09T17:16:30.462Z,23.70
2022-11-09T17:21:23.581Z,19.73
2022-11-09T17:24:27.140Z,18.37
2022-11-09T17:27:30.379Z,19.47
2022-11-09T17:30:33.856Z,14.03
2022-11-09T17:33:37.084Z,12.23
2022-11-09T17:37:02.877Z,7.97
2022-11-09T17:40:05.169Z,7.30
2022-11-09T17:43:08.381Z,6.73
2022-11-09T17:46:12.434Z,5.90
2022-11-09T17:49:15.950Z,5.47
2022-11-09T17:52:20.571Z,10.60
2022-11-09T17:55:23.886Z,7.00
2022-11-09T17:58:27.164Z,4.20
2022-11-09T18:01:30.605Z,7.03
2022-11-09T18:04:34.043Z,4.07
2022-11-09T18:07:38.788Z,2.97
2022-11-09T18:10:43.016Z,4.37
2022-11-09T18:13:46.642Z,3.80
2022-11-09T18:16:49.834Z,4.37
2022-11-09T18:19:53.043Z,4.37
2022-11-09T18:22:57.574Z,3.80
2022-11-09T18:26:00.952Z,2.83
2022-11-09T18:29:04.269Z,3.13
2022-11-09T18:32:07.890Z,3.27
2022-11-09T18:35:11.158Z,6.73
2022-11-09T18:38:19.864Z,8.33
2022-11-09T18:41:24.381Z,8.57
2022-11-09T18:44:27.726Z,7.30
2022-11-09T18:47:31.098Z,5.70
2022-11-09T18:50:34.447Z,4.60
2022-11-09T18:53:39.790Z,3.77
2022-11-09T18:56:42.991Z,3.70
2022-11-09T18:59:46.455Z,3.70
2022-11-09T19:02:49.678Z,5.70
2022-11-09T19:05:52.879Z,9.03
2022-11-09T19:09:15.039Z,5.63
2022-11-09T19:12:18.314Z,7.70
2022-11-09T19:15:21.503Z,9.87
2022-11-09T19:18:24.689Z,6.87
2022-11-09T19:21:32.830Z,4.17
2022-11-09T19:24:37.360Z,4.03
2022-11-09T19:27:41.444Z,3.60
2022-11-09T19:30:44.626Z,3.90
2022-11-09T19:33:47.918Z,6.37
2022-11-09T19:36:51.381Z,4.27
2022-11-09T19:39:55.926Z,4.07
2022-11-09T19:42:59.117Z,3.70
2022-11-09T19:46:04.999Z,4.40
2022-11-09T19:49:09.272Z,3.10
2022-11-09T19:52:12.925Z,6.43
2022-11-09T19:55:17.523Z,3.73
2022-11-09T19:58:21.229Z,4.93
2022-11-09T20:01:24.861Z,5.50
2022-11-09T20:04:28.310Z,7.93
2022-11-09T20:07:33.343Z,7.30
2022-11-09T20:10:38.975Z,6.10
2022-11-09T20:13:42.406Z,5.23
2022-11-09T20:16:48.378Z,5.53
2022-11-09T20:19:51.568Z,5.30
2022-11-09T20:22:54.770Z,4.77
2022-11-09T20:26:06.035Z,5.03
2022-11-09T20:29:09.459Z,4.47
2022-11-09T20:32:12.826Z,4.93
2022-11-09T20:35:17.295Z,5.30
2022-11-09T20:38:20.907Z,5.10
2022-11-09T20:41:25.900Z,4.03
2022-11-09T20:44:29.132Z,4.00
2022-11-09T20:48:02.246Z,3.33
2022-11-09T20:50:55.662Z,3.03
2022-11-09T20:54:05.447Z,3.00
2022-11-09T20:57:11.659Z,3.53
2022-11-09T21:00:17.280Z,3.00
2022-11-09T21:03:25.521Z,3.23
2022-11-09T21:06:28.874Z,2.73
2022-11-09T21:09:32.098Z,2.90
2022-11-09T21:12:36.677Z,3.27
2022-11-09T21:15:39.896Z,2.60
2022-11-09T21:18:43.676Z,2.53
2022-11-09T21:21:47.075Z,2.47
2022-11-09T21:25:08.241Z,3.30
2022-11-09T21:28:33.170Z,2.67
2022-11-09T21:31:36.353Z,2.23
2022-11-09T21:34:39.670Z,2.60
2022-11-09T21:37:43.066Z,2.67
2022-11-09T21:40:46.643Z,3.03
2022-11-09T21:43:54.003Z,2.50
2022-11-09T21:46:57.978Z,2.90
2022-11-09T21:50:01.426Z,2.40
2022-11-09T21:53:05.047Z,2.40
2022-11-09T21:56:08.976Z,2.70
2022-11-09T21:59:14.347Z,2.63
2022-11-09T22:02:17.811Z,2.40
2022-11-09T22:05:23.167Z,3.17
2022-11-09T22:08:27.397Z,2.57
2022-11-09T22:11:44.677Z,2.90
2022-11-09T22:15:06.901Z,2.40
2022-11-09T22:18:30.454Z,2.27
2022-11-09T22:21:33.341Z,2.77
2022-11-09T22:24:36.774Z,2.60
2022-11-09T22:27:40.165Z,2.23
2022-11-09T22:30:45.001Z,2.73
2022-11-09T22:33:48.410Z,3.60
2022-11-09T22:36:51.626Z,2.50
2022-11-09T22:39:54.902Z,3.27
2022-11-09T22:42:58.199Z,3.47
2022-11-09T22:46:05.271Z,2.30
2022-11-09T22:49:10.165Z,3.40
2022-11-09T22:52:13.409Z,2.80
2022-11-09T22:55:18.377Z,3.13
2022-11-09T22:58:21.822Z,3.03
2022-11-09T23:01:26.466Z,3.40
2022-11-09T23:04:29.711Z,3.27
2022-11-09T23:07:32.970Z,3.47
2022-11-09T23:10:36.285Z,4.10
2022-11-09T23:13:39.500Z,3.47
2022-11-09T23:16:44.020Z,3.93
2022-11-09T23:19:46.266Z,3.37
2022-11-09T23:22:49.696Z,3.57
2022-11-09T23:25:56.587Z,5.60
2022-11-09T23:28:59.804Z,3.80
2022-11-09T23:32:04.361Z,3.27
2022-11-09T23:35:08.130Z,4.20
2022-11-09T23:38:12.441Z,4.33
2022-11-09T23:41:16.639Z,3.97
2022-11-09T23:44:19.867Z,4.17
2022-11-09T23:47:24.616Z,4.23
2022-11-09T23:50:28.185Z,4.10
2022-11-09T23:53:32.370Z,4.30
2022-11-09T23:56:35.568Z,4.70
2022-11-09T23:59:38.826Z,4.50
